sensor_id;sensor_type;location;lat;lon;timestamp;pressure;altitude;pressure_sealevel;temperature;humidity
27202;BME280;14717;46.924;15.474;2022-11-15T00:02:05;98115.31;;;9.27;100.00
27202;BME280;14717;46.924;15.474;2022-11-15T00:04:30;98125.81;;;9.05;100.00
27202;BME280;14717;46.924;15.474;2022-11-15T00:06:56;98114.81;;;8.86;100.00
27202;BME280;14717;46.924;15.474;2022-11-15T00:09:21;98117.56;;;8.86;100.00
27202;BME280;14717;46.924;15.474;2022-11-15T00:11:46;98119.72;;;9.03;100.00
27202;BME280;14717;46.924;15.474;2022-11-15T00:14:12;98120.31;;;9.10;100.00
27202;BME280;14717;46.924;15.474;2022-11-15T00:16:37;98118.09;;;8.97;100.00
27202;BME280;14717;46.924;15.474;2022-11-15T00:19:02;98113.41;;;8.93;100.00
27202;BME280;14717;46.924;15.474;2022-11-15T00:21:28;98110.13;;;8.91;100.00
27202;BME280;14717;46.924;15.474;2022-11-15T00:23:53;98104.34;;;8.78;100.00
27202;BME280;14717;46.924;15.474;2022-11-15T00:26:18;98096.63;;;8.70;100.00
27202;BME280;14717;46.924;15.474;2022-11-15T00:28:44;98097.72;;;8.69;100.00
27202;BME280;14717;46.924;15.474;2022-11-15T00:31:12;98108.72;;;8.59;100.00
27202;BME280;14717;46.924;15.474;2022-11-15T00:33:38;98111.47;;;8.49;100.00
27202;BME280;14717;46.924;15.474;2022-11-15T00:36:06;98107.06;;;8.48;100.00
27202;BME280;14717;46.924;15.474;2022-11-15T00:38:33;98109.56;;;8.64;100.00
27202;BME280;14717;46.924;15.474;2022-11-15T00:40:59;98102.94;;;8.70;100.00
27202;BME280;14717;46.924;15.474;2022-11-15T00:43:24;98108.19;;;8.77;100.00
27202;BME280;14717;46.924;15.474;2022-11-15T00:45:50;98096.88;;;8.83;100.00
27202;BME280;14717;46.924;15.474;2022-11-15T00:48:15;98099.38;;;8.85;100.00
27202;BME280;14717;46.924;15.474;2022-11-15T00:50:40;98100.19;;;8.60;100.00
27202;BME280;14717;46.924;15.474;2022-11-15T00:53:06;98094.94;;;8.64;100.00
27202;BME280;14717;46.924;15.474;2022-11-15T00:55:31;98100.47;;;8.74;100.00
27202;BME280;14717;46.924;15.474;2022-11-15T00:57:57;98089.16;;;8.75;100.00
27202;BME280;14717;46.924;15.474;2022-11-15T01:00:22;98089.44;;;8.89;100.00
27202;BME280;14717;46.924;15.474;2022-11-15T01:02:48;98068.53;;;8.83;100.00
27202;BME280;14717;46.924;15.474;2022-11-15T01:05:13;98071.00;;;8.89;100.00
27202;BME280;14717;46.924;15.474;2022-11-15T01:07:38;98072.66;;;8.80;100.00
27202;BME280;14717;46.924;15.474;2022-11-15T01:10:04;98067.97;;;8.91;100.00
27202;BME280;14717;46.924;15.474;2022-11-15T01:12:30;98071.81;;;8.94;100.00
27202;BME280;14717;46.924;15.474;2022-11-15T01:14:55;98058.59;;;8.96;100.00
27202;BME280;14717;46.924;15.474;2022-11-15T01:17:21;98063.00;;;9.02;100.00
27202;BME280;14717;46.924;15.474;2022-11-15T01:19:46;98055.00;;;9.01;100.00
27202;BME280;14717;46.924;15.474;2022-11-15T01:22:11;98052.25;;;9.06;100.00
27202;BME280;14717;46.924;15.474;2022-11-15T01:24:37;98062.72;;;9.09;100.00
27202;BME280;14717;46.924;15.474;2022-11-15T01:27:02;98072.06;;;9.08;100.00
27202;BME280;14717;46.924;15.474;2022-11-15T01:29:28;98073.72;;;9.09;100.00
27202;BME280;14717;46.924;15.474;2022-11-15T01:31:53;98072.88;;;9.08;100.00
27202;BME280;14717;46.924;15.474;2022-11-15T01:34:19;98064.34;;;9.10;100.00
27202;BME280;14717;46.924;15.474;2022-11-15T01:36:44;98065.19;;;9.10;100.00
27202;BME280;14717;46.924;15.474;2022-11-15T01:39:09;98058.56;;;9.06;100.00
27202;BME280;14717;46.924;15.474;2022-11-15T01:41:35;98062.16;;;8.92;100.00
27202;BME280;14717;46.924;15.474;2022-11-15T01:46:53;98051.13;;;8.97;100.00
27202;BME280;14717;46.924;15.474;2022-11-15T01:49:21;98057.22;;;8.99;100.00
27202;BME280;14717;46.924;15.474;2022-11-15T01:51:47;98054.72;;;9.07;100.00
27202;BME280;14717;46.924;15.474;2022-11-15T01:54:16;98052.50;;;9.09;100.00
27202;BME280;14717;46.924;15.474;2022-11-15T01:56:47;98049.22;;;9.07;100.00
27202;BME280;14717;46.924;15.474;2022-11-15T01:59:13;98052.00;;;8.88;100.00
27202;BME280;14717;46.924;15.474;2022-11-15T02:01:40;98052.00;;;8.68;100.00
27202;BME280;14717;46.924;15.474;2022-11-15T02:04:12;98051.75;;;8.54;100.00
27202;BME280;14717;46.924;15.474;2022-11-15T02:06:39;98044.31;;;8.45;100.00
27202;BME280;14717;46.924;15.474;2022-11-15T02:09:05;98036.59;;;8.42;100.00
27202;BME280;14717;46.924;15.474;2022-11-15T02:11:31;98037.69;;;8.51;100.00
27202;BME280;14717;46.924;15.474;2022-11-15T02:13:58;98036.31;;;8.53;100.00
27202;BME280;14717;46.924;15.474;2022-11-15T02:19:37;98037.13;;;8.64;100.00
27202;BME280;14717;46.924;15.474;2022-11-15T02:33:54;98032.75;;;8.63;100.00
27202;BME280;14717;46.924;15.474;2022-11-15T02:41:51;98011.81;;;8.62;100.00
27202;BME280;14717;46.924;15.474;2022-11-15T02:44:25;98012.63;;;8.62;100.00
27202;BME280;14717;46.924;15.474;2022-11-15T02:46:57;98017.88;;;8.49;100.00
27202;BME280;14717;46.924;15.474;2022-11-15T02:49:47;98009.88;;;8.43;100.00
27202;BME280;14717;46.924;15.474;2022-11-15T02:52:19;98002.19;;;8.35;100.00
27202;BME280;14717;46.924;15.474;2022-11-15T02:54:55;98008.78;;;8.39;100.00
27202;BME280;14717;46.924;15.474;2022-11-15T02:57:45;98010.16;;;8.56;100.00
27202;BME280;14717;46.924;15.474;2022-11-15T03:00:18;98002.44;;;8.63;100.00
27202;BME280;14717;46.924;15.474;2022-11-15T03:13:18;97992.47;;;8.87;100.00
27202;BME280;14717;46.924;15.474;2022-11-15T03:18:44;97991.69;;;8.76;100.00
27202;BME280;14717;46.924;15.474;2022-11-15T03:21:11;97988.09;;;8.71;100.00
27202;BME280;14717;46.924;15.474;2022-11-15T03:23:39;97993.63;;;8.61;100.00
27202;BME280;14717;46.924;15.474;2022-11-15T03:26:07;97993.09;;;8.54;100.00
27202;BME280;14717;46.924;15.474;2022-11-15T03:28:38;97983.19;;;8.58;100.00
27202;BME280;14717;46.924;15.474;2022-11-15T03:31:05;97978.22;;;8.55;100.00
27202;BME280;14717;46.924;15.474;2022-11-15T03:33:53;97981.25;;;8.63;100.00
27202;BME280;14717;46.924;15.474;2022-11-15T03:36:22;97977.38;;;8.74;100.00
27202;BME280;14717;46.924;15.474;2022-11-15T03:38:48;97971.56;;;8.76;100.00
27202;BME280;14717;46.924;15.474;2022-11-15T03:41:23;97975.44;;;8.80;100.00
27202;BME280;14717;46.924;15.474;2022-11-15T03:43:56;97973.25;;;8.72;100.00
27202;BME280;14717;46.924;15.474;2022-11-15T03:46:39;97972.44;;;8.66;100.00
27202;BME280;14717;46.924;15.474;2022-11-15T03:49:19;97969.41;;;8.58;100.00
27202;BME280;14717;46.924;15.474;2022-11-15T03:51:47;97969.44;;;8.53;100.00
27202;BME280;14717;46.924;15.474;2022-11-15T03:54:12;97979.31;;;8.49;100.00
27202;BME280;14717;46.924;15.474;2022-11-15T03:56:38;97972.44;;;8.51;100.00
27202;BME280;14717;46.924;15.474;2022-11-15T03:59:03;97972.19;;;8.53;100.00
27202;BME280;14717;46.924;15.474;2022-11-15T04:01:29;97973.53;;;8.55;100.00
27202;BME280;14717;46.924;15.474;2022-11-15T04:03:54;97969.41;;;8.58;100.00
27202;BME280;14717;46.924;15.474;2022-11-15T04:06:20;97967.75;;;8.52;100.00
27202;BME280;14717;46.924;15.474;2022-11-15T04:08:45;97970.22;;;8.58;100.00
27202;BME280;14717;46.924;15.474;2022-11-15T04:11:10;97968.28;;;8.64;100.00
27202;BME280;14717;46.924;15.474;2022-11-15T04:13:36;97962.50;;;8.65;100.00
27202;BME280;14717;46.924;15.474;2022-11-15T04:16:01;97949.25;;;8.72;100.00
27202;BME280;14717;46.924;15.474;2022-11-15T04:18:26;97953.97;;;8.72;100.00
27202;BME280;14717;46.924;15.474;2022-11-15T04:20:51;97946.81;;;8.66;100.00
27202;BME280;14717;46.924;15.474;2022-11-15T04:23:35;97946.81;;;8.66;100.00
27202;BME280;14717;46.924;15.474;2022-11-15T04:26:21;97940.75;;;8.59;100.00
27202;BME280;14717;46.924;15.474;2022-11-15T04:28:47;97942.44;;;8.50;100.00
27202;BME280;14717;46.924;15.474;2022-11-15T04:31:32;97938.56;;;8.56;100.00
27202;BME280;14717;46.924;15.474;2022-11-15T04:33:57;97931.94;;;8.67;100.00
27202;BME280;14717;46.924;15.474;2022-11-15T04:36:23;97920.38;;;8.70;100.00
27202;BME280;14717;46.924;15.474;2022-11-15T04:39:07;97922.56;;;8.73;100.00
27202;BME280;14717;46.924;15.474;2022-11-15T04:41:33;97923.16;;;8.65;100.00
27202;BME280;14717;46.924;15.474;2022-11-15T04:43:58;97911.03;;;8.51;100.00
27202;BME280;14717;46.924;15.474;2022-11-15T04:46:24;97921.53;;;8.39;100.00
27202;BME280;14717;46.924;15.474;2022-11-15T04:48:51;97913.25;;;8.44;100.00
27202;BME280;14717;46.924;15.474;2022-11-15T04:51:17;97909.41;;;8.50;100.00
27202;BME280;14717;46.924;15.474;2022-11-15T04:53:42;97909.41;;;8.55;100.00
27202;BME280;14717;46.924;15.474;2022-11-15T04:56:08;97901.41;;;8.58;100.00
27202;BME280;14717;46.924;15.474;2022-11-15T04:58:33;97902.22;;;8.59;100.00
27202;BME280;14717;46.924;15.474;2022-11-15T05:01:10;97899.75;;;8.52;100.00
27202;BME280;14717;46.924;15.474;2022-11-15T05:03:35;97901.66;;;8.62;100.00
27202;BME280;14717;46.924;15.474;2022-11-15T05:06:20;97890.66;;;8.57;100.00
27202;BME280;14717;46.924;15.474;2022-11-15T05:08:45;97892.59;;;8.56;100.00
27202;BME280;14717;46.924;15.474;2022-11-15T05:11:11;97896.72;;;8.59;100.00
27202;BME280;14717;46.924;15.474;2022-11-15T05:13:36;97897.25;;;8.61;100.00
27202;BME280;14717;46.924;15.474;2022-11-15T05:16:01;97893.69;;;8.60;100.00
27202;BME280;14717;46.924;15.474;2022-11-15T05:18:27;97890.66;;;8.62;100.00
27202;BME280;14717;46.924;15.474;2022-11-15T05:20:52;97894.47;;;8.66;100.00
27202;BME280;14717;46.924;15.474;2022-11-15T05:23:18;97889.28;;;8.64;100.00
27202;BME280;14717;46.924;15.474;2022-11-15T05:25:44;97884.34;;;8.61;100.00
27202;BME280;14717;46.924;15.474;2022-11-15T05:28:09;97885.75;;;8.44;100.00
27202;BME280;14717;46.924;15.474;2022-11-15T05:30:35;97888.75;;;8.52;100.00
27202;BME280;14717;46.924;15.474;2022-11-15T05:33:00;97887.38;;;8.50;100.00
27202;BME280;14717;46.924;15.474;2022-11-15T05:35:32;97891.78;;;8.46;100.00
27202;BME280;14717;46.924;15.474;2022-11-15T05:37:59;97902.25;;;8.49;100.00
27202;BME280;14717;46.924;15.474;2022-11-15T05:40:25;97892.59;;;8.56;100.00
27202;BME280;14717;46.924;15.474;2022-11-15T05:42:51;97895.59;;;8.65;100.00
27202;BME280;14717;46.924;15.474;2022-11-15T05:45:16;97890.66;;;8.62;100.00
27202;BME280;14717;46.924;15.474;2022-11-15T05:47:42;97893.94;;;8.64;100.00
27202;BME280;14717;46.924;15.474;2022-11-15T05:50:12;97890.91;;;8.65;100.00
27202;BME280;14717;46.924;15.474;2022-11-15T05:52:38;97896.72;;;8.59;100.00
27202;BME280;14717;46.924;15.474;2022-11-15T05:55:04;97893.72;;;8.50;100.00
27202;BME280;14717;46.924;15.474;2022-11-15T05:57:31;97890.94;;;8.55;100.00
27202;BME280;14717;46.924;15.474;2022-11-15T05:59:56;97889.56;;;8.58;100.00
27202;BME280;14717;46.924;15.474;2022-11-15T06:02:22;97888.47;;;8.54;100.00
27202;BME280;14717;46.924;15.474;2022-11-15T06:04:47;97891.75;;;8.56;100.00
27202;BME280;14717;46.924;15.474;2022-11-15T06:07:12;97888.47;;;8.54;100.00
27202;BME280;14717;46.924;15.474;2022-11-15T06:09:38;97888.47;;;8.54;100.00
27202;BME280;14717;46.924;15.474;2022-11-15T06:12:03;97895.09;;;8.58;100.00
27202;BME280;14717;46.924;15.474;2022-11-15T06:14:29;97908.84;;;8.63;100.00
27202;BME280;14717;46.924;15.474;2022-11-15T06:16:54;97906.59;;;8.70;100.00
27202;BME280;14717;46.924;15.474;2022-11-15T06:19:20;97903.84;;;8.70;100.00
27202;BME280;14717;46.924;15.474;2022-11-15T06:21:45;97908.81;;;8.68;100.00
27202;BME280;14717;46.924;15.474;2022-11-15T06:24:11;97925.34;;;8.63;100.00
27202;BME280;14717;46.924;15.474;2022-11-15T06:26:36;97916.53;;;8.61;100.00
27202;BME280;14717;46.924;15.474;2022-11-15T06:29:03;97913.78;;;8.56;100.00
27202;BME280;14717;46.924;15.474;2022-11-15T06:31:29;97909.38;;;8.60;100.00
27202;BME280;14717;46.924;15.474;2022-11-15T06:33:55;97916.81;;;8.64;100.00
27202;BME280;14717;46.924;15.474;2022-11-15T06:36:20;97906.63;;;8.65;100.00
27202;BME280;14717;46.924;15.474;2022-11-15T06:38:46;97909.34;;;8.70;100.00
27202;BME280;14717;46.924;15.474;2022-11-15T06:41:12;97908.00;;;8.62;100.00
27202;BME280;14717;46.924;15.474;2022-11-15T06:43:38;97904.41;;;8.62;100.00
27202;BME280;14717;46.924;15.474;2022-11-15T06:46:04;97904.97;;;8.64;100.00
27202;BME280;14717;46.924;15.474;2022-11-15T06:48:31;97902.72;;;8.76;100.00
27202;BME280;14717;46.924;15.474;2022-11-15T06:50:58;97893.06;;;8.83;100.00
27202;BME280;14717;46.924;15.474;2022-11-15T06:53:24;97899.94;;;8.81;100.00
27202;BME280;14717;46.924;15.474;2022-11-15T06:55:50;97897.19;;;8.86;100.00
27202;BME280;14717;46.924;15.474;2022-11-15T06:58:15;97896.38;;;8.75;100.00
27202;BME280;14717;46.924;15.474;2022-11-15T07:00:41;97901.94;;;8.65;100.00
27202;BME280;14717;46.924;15.474;2022-11-15T07:03:07;97908.56;;;8.59;100.00
27202;BME280;14717;46.924;15.474;2022-11-15T07:05:33;97900.53;;;8.78;100.00
27202;BME280;14717;46.924;15.474;2022-11-15T07:07:59;97899.94;;;8.91;100.00
27202;BME280;14717;46.924;15.474;2022-11-15T07:10:25;97904.84;;;8.98;100.00
27202;BME280;14717;46.924;15.474;2022-11-15T07:12:54;97905.91;;;9.07;100.00
27202;BME280;14717;46.924;15.474;2022-11-15T07:15:23;97903.75;;;8.99;100.00
27202;BME280;14717;46.924;15.474;2022-11-15T07:17:49;97895.19;;;9.01;100.00
27202;BME280;14717;46.924;15.474;2022-11-15T07:20:15;97896.34;;;8.90;100.00
27202;BME280;14717;46.924;15.474;2022-11-15T07:22:41;97894.75;;;8.74;100.00
27202;BME280;14717;46.924;15.474;2022-11-15T07:25:07;97890.63;;;8.72;100.00
27202;BME280;14717;46.924;15.474;2022-11-15T07:27:33;97892.56;;;8.71;100.00
27202;BME280;14717;46.924;15.474;2022-11-15T07:29:58;97900.50;;;8.83;100.00
27202;BME280;14717;46.924;15.474;2022-11-15T07:32:24;97899.94;;;8.91;100.00
27202;BME280;14717;46.924;15.474;2022-11-15T07:34:50;97904.31;;;8.91;100.00
27202;BME280;14717;46.924;15.474;2022-11-15T07:37:15;97911.47;;;8.97;100.00
27202;BME280;14717;46.924;15.474;2022-11-15T07:39:42;97897.41;;;8.99;100.00
27202;BME280;14717;46.924;15.474;2022-11-15T07:42:07;97899.91;;;9.00;100.00
27202;BME280;14717;46.924;15.474;2022-11-15T07:45:02;97901.81;;;9.00;100.00
27202;BME280;14717;46.924;15.474;2022-11-15T07:47:28;97892.13;;;9.07;100.00
27202;BME280;14717;46.924;15.474;2022-11-15T07:49:54;97895.44;;;9.09;100.00
27202;BME280;14717;46.924;15.474;2022-11-15T07:52:19;97893.25;;;9.01;100.00
27202;BME280;14717;46.924;15.474;2022-11-15T07:54:44;97896.53;;;9.08;100.00
27202;BME280;14717;46.924;15.474;2022-11-15T07:57:09;97895.44;;;9.04;100.00
27202;BME280;14717;46.924;15.474;2022-11-15T07:59:35;97893.78;;;9.03;100.00
27202;BME280;14717;46.924;15.474;2022-11-15T08:02:01;97881.66;;;9.09;100.00
27202;BME280;14717;46.924;15.474;2022-11-15T08:04:26;97889.09;;;9.09;100.00
27202;BME280;14717;46.924;15.474;2022-11-15T08:06:52;97887.97;;;9.10;100.00
27202;BME280;14717;46.924;15.474;2022-11-15T08:09:17;97887.97;;;9.10;100.00
27202;BME280;14717;46.924;15.474;2022-11-15T08:11:42;97884.47;;;8.99;100.00
27202;BME280;14717;46.924;15.474;2022-11-15T08:14:08;97881.16;;;8.97;100.00
27202;BME280;14717;46.924;15.474;2022-11-15T08:16:33;97881.44;;;9.01;100.00
27202;BME280;14717;46.924;15.474;2022-11-15T08:18:58;97883.31;;;9.10;100.00
27202;BME280;14717;46.924;15.474;2022-11-15T08:21:24;97877.50;;;9.12;100.00
27202;BME280;14717;46.924;15.474;2022-11-15T08:23:49;97877.22;;;9.13;100.00
27202;BME280;14717;46.924;15.474;2022-11-15T08:26:15;97871.13;;;9.16;100.00
27202;BME280;14717;46.924;15.474;2022-11-15T08:28:40;97876.06;;;9.24;100.00
27202;BME280;14717;46.924;15.474;2022-11-15T08:31:05;97876.59;;;9.26;100.00
27202;BME280;14717;46.924;15.474;2022-11-15T08:33:32;97873.38;;;9.14;100.00
27202;BME280;14717;46.924;15.474;2022-11-15T08:36:01;97870.84;;;9.23;100.00
27202;BME280;14717;46.924;15.474;2022-11-15T08:38:26;97876.03;;;9.29;100.00
27202;BME280;14717;46.924;15.474;2022-11-15T08:41:00;97868.81;;;9.38;100.00
27202;BME280;14717;46.924;15.474;2022-11-15T08:43:26;97874.31;;;9.38;100.00
27202;BME280;14717;46.924;15.474;2022-11-15T08:45:55;97868.78;;;9.43;100.00
27202;BME280;14717;46.924;15.474;2022-11-15T08:48:21;97867.75;;;9.29;100.00
27202;BME280;14717;46.924;15.474;2022-11-15T08:50:46;97862.31;;;9.19;100.00
27202;BME280;14717;46.924;15.474;2022-11-15T08:53:13;97864.22;;;9.24;100.00
27202;BME280;14717;46.924;15.474;2022-11-15T08:55:39;97865.59;;;9.21;100.00
27202;BME280;14717;46.924;15.474;2022-11-15T08:58:08;97866.41;;;9.22;100.00
27202;BME280;14717;46.924;15.474;2022-11-15T09:00:33;97868.38;;;9.16;100.00
27202;BME280;14717;46.924;15.474;2022-11-15T09:02:58;97871.09;;;9.26;100.00
27202;BME280;14717;46.924;15.474;2022-11-15T09:05:25;97871.59;;;9.33;100.00
27202;BME280;14717;46.924;15.474;2022-11-15T09:07:53;97862.72;;;9.41;100.00
27202;BME280;14717;46.924;15.474;2022-11-15T09:10:19;97856.16;;;9.37;100.00
27202;BME280;14717;46.924;15.474;2022-11-15T09:12:45;97863.28;;;9.38;100.00
27202;BME280;14717;46.924;15.474;2022-11-15T09:15:13;97857.78;;;9.38;100.00
27202;BME280;14717;46.924;15.474;2022-11-15T09:17:39;97856.13;;;9.42;100.00
27202;BME280;14717;46.924;15.474;2022-11-15T09:20:05;97848.38;;;9.44;100.00
27202;BME280;14717;46.924;15.474;2022-11-15T09:22:30;97851.13;;;9.44;100.00
27202;BME280;14717;46.924;15.474;2022-11-15T09:24:56;97849.47;;;9.43;100.00
27202;BME280;14717;46.924;15.474;2022-11-15T09:27:21;97848.41;;;9.39;100.00
27202;BME280;14717;46.924;15.474;2022-11-15T09:29:46;97843.78;;;9.30;100.00
27202;BME280;14717;46.924;15.474;2022-11-15T09:32:12;97849.06;;;9.21;100.00
27202;BME280;14717;46.924;15.474;2022-11-15T09:34:37;97836.59;;;9.33;100.00
27202;BME280;14717;46.924;15.474;2022-11-15T09:37:02;97839.63;;;9.32;100.00
27202;BME280;14717;46.924;15.474;2022-11-15T09:39:28;97837.69;;;9.32;100.00
27202;BME280;14717;46.924;15.474;2022-11-15T09:41:58;97839.63;;;9.32;100.00
27202;BME280;14717;46.924;15.474;2022-11-15T09:44:42;97838.25;;;9.30;100.00
27202;BME280;14717;46.924;15.474;2022-11-15T09:49:57;97823.00;;;9.47;100.00
27202;BME280;14717;46.924;15.474;2022-11-15T09:52:24;97825.78;;;9.42;100.00
27202;BME280;14717;46.924;15.474;2022-11-15T09:54:51;97823.09;;;9.32;100.00
27202;BME280;14717;46.924;15.474;2022-11-15T10:00:04;97805.25;;;9.58;100.00
27202;BME280;14717;46.924;15.474;2022-11-15T10:05:02;97805.97;;;9.73;100.00
27202;BME280;14717;46.924;15.474;2022-11-15T10:07:33;97797.50;;;9.98;100.00
27202;BME280;14717;46.924;15.474;2022-11-15T10:10:17;97791.72;;;9.94;100.00
27202;BME280;14717;46.924;15.474;2022-11-15T10:12:47;97789.78;;;9.95;100.00
27202;BME280;14717;46.924;15.474;2022-11-15T10:15:16;97784.84;;;9.87;100.00
27202;BME280;14717;46.924;15.474;2022-11-15T10:20:44;97775.25;;;9.84;100.00
27202;BME280;14717;46.924;15.474;2022-11-15T10:23:14;97769.72;;;9.84;100.00
27202;BME280;14717;46.924;15.474;2022-11-15T10:25:40;97759.44;;;9.95;100.00
27202;BME280;14717;46.924;15.474;2022-11-15T10:28:28;97756.03;;;10.03;100.00
27202;BME280;14717;46.924;15.474;2022-11-15T10:30:56;97749.72;;;9.97;100.00
27202;BME280;14717;46.924;15.474;2022-11-15T10:33:29;97742.00;;;9.99;100.00
27202;BME280;14717;46.924;15.474;2022-11-15T10:38:33;97740.31;;;10.26;100.00
27202;BME280;14717;46.924;15.474;2022-11-15T10:41:07;97733.78;;;10.41;100.00
27202;BME280;14717;46.924;15.474;2022-11-15T10:43:32;97732.28;;;10.48;100.00
27202;BME280;14717;46.924;15.474;2022-11-15T10:46:20;97715.16;;;10.28;100.00
27202;BME280;14717;46.924;15.474;2022-11-15T10:48:46;97717.63;;;10.29;100.00
27202;BME280;14717;46.924;15.474;2022-11-15T10:51:23;97712.22;;;10.43;100.00
27202;BME280;14717;46.924;15.474;2022-11-15T10:53:54;97716.06;;;10.47;100.00
27202;BME280;14717;46.924;15.474;2022-11-15T10:56:21;97712.00;;;10.39;100.00
27202;BME280;14717;46.924;15.474;2022-11-15T10:58:56;97702.69;;;10.54;100.00
27202;BME280;14717;46.924;15.474;2022-11-15T11:01:26;97694.28;;;10.63;100.00
27202;BME280;14717;46.924;15.474;2022-11-15T11:04:09;97690.53;;;10.73;99.01
27202;BME280;14717;46.924;15.474;2022-11-15T11:09:35;97677.69;;;10.82;99.50
27202;BME280;14717;46.924;15.474;2022-11-15T11:12:01;97688.91;;;10.72;98.89
27202;BME280;14717;46.924;15.474;2022-11-15T11:14:35;97673.13;;;10.72;99.57
27202;BME280;14717;46.924;15.474;2022-11-15T11:25:33;97664.63;;;10.51;99.80
27202;BME280;14717;46.924;15.474;2022-11-15T11:28:14;97657.22;;;10.64;99.72
27202;BME280;14717;46.924;15.474;2022-11-15T11:36:54;97645.72;;;10.39;100.00
27202;BME280;14717;46.924;15.474;2022-11-15T11:42:17;97643.84;;;10.35;100.00
27202;BME280;14717;46.924;15.474;2022-11-15T11:47:25;97634.75;;;10.53;99.59
27202;BME280;14717;46.924;15.474;2022-11-15T11:50:11;97638.88;;;10.55;99.11
27202;BME280;14717;46.924;15.474;2022-11-15T11:55:48;97627.97;;;10.45;100.00
27202;BME280;14717;46.924;15.474;2022-11-15T11:58:21;97610.56;;;10.45;100.00
27202;BME280;14717;46.924;15.474;2022-11-15T12:03:32;97604.44;;;10.48;100.00
27202;BME280;14717;46.924;15.474;2022-11-15T12:06:20;97597.31;;;10.47;100.00
27202;BME280;14717;46.924;15.474;2022-11-15T12:12:15;97582.50;;;10.38;100.00
27202;BME280;14717;46.924;15.474;2022-11-15T12:15:01;97577.50;;;10.40;100.00
27202;BME280;14717;46.924;15.474;2022-11-15T12:17:29;97567.22;;;10.45;100.00
27202;BME280;14717;46.924;15.474;2022-11-15T12:19:59;97556.53;;;10.39;100.00
27202;BME280;14717;46.924;15.474;2022-11-15T12:22:52;97563.84;;;10.30;100.00
27202;BME280;14717;46.924;15.474;2022-11-15T12:25:32;97572.75;;;10.27;100.00
27202;BME280;14717;46.924;15.474;2022-11-15T12:30:44;97563.25;;;10.33;100.00
27202;BME280;14717;46.924;15.474;2022-11-15T12:36:04;97556.19;;;10.27;100.00
27202;BME280;14717;46.924;15.474;2022-11-15T12:39:07;97564.91;;;10.34;100.00
27202;BME280;14717;46.924;15.474;2022-11-15T12:41:37;97562.81;;;10.26;100.00
27202;BME280;14717;46.924;15.474;2022-11-15T12:44:04;97554.53;;;10.26;100.00
27202;BME280;14717;46.924;15.474;2022-11-15T12:49:00;97546.09;;;10.36;100.00
27202;BME280;14717;46.924;15.474;2022-11-15T13:17:49;97509.28;;;10.59;98.50
27202;BME280;14717;46.924;15.474;2022-11-15T13:20:17;97505.47;;;10.55;100.00
27202;BME280;14717;46.924;15.474;2022-11-15T13:28:36;97495.69;;;10.62;100.00
27202;BME280;14717;46.924;15.474;2022-11-15T13:31:27;97499.38;;;10.71;99.86
27202;BME280;14717;46.924;15.474;2022-11-15T13:33:56;97492.78;;;10.54;100.00
27202;BME280;14717;46.924;15.474;2022-11-15T13:36:28;97491.13;;;10.53;100.00
27202;BME280;14717;46.924;15.474;2022-11-15T13:39:25;97485.94;;;10.83;99.26
27202;BME280;14717;46.924;15.474;2022-11-15T13:41:52;97487.47;;;10.89;97.84
27202;BME280;14717;46.924;15.474;2022-11-15T13:44:29;97476.22;;;10.99;97.92
27202;BME280;14717;46.924;15.474;2022-11-15T13:47:05;97475.28;;;10.90;97.45
27202;BME280;14717;46.924;15.474;2022-11-15T13:49:32;97486.66;;;10.88;97.54
27202;BME280;14717;46.924;15.474;2022-11-15T13:52:00;97477.72;;;10.78;98.58
27202;BME280;14717;46.924;15.474;2022-11-15T13:59:50;97466.88;;;10.81;98.33
27202;BME280;14717;46.924;15.474;2022-11-15T14:02:19;97473.03;;;10.78;97.77
27202;BME280;14717;46.924;15.474;2022-11-15T14:04:51;97467.91;;;10.85;97.46
27202;BME280;14717;46.924;15.474;2022-11-15T14:07:18;97471.78;;;10.84;97.74
27202;BME280;14717;46.924;15.474;2022-11-15T14:09:45;97466.88;;;10.81;98.80
27202;BME280;14717;46.924;15.474;2022-11-15T14:14:54;97467.50;;;10.78;98.58
27202;BME280;14717;46.924;15.474;2022-11-15T14:19:55;97468.09;;;10.75;97.74
27202;BME280;14717;46.924;15.474;2022-11-15T14:22:25;97453.16;;;10.76;98.96
27202;BME280;14717;46.924;15.474;2022-11-15T14:25:15;97453.59;;;10.83;98.11
27202;BME280;14717;46.924;15.474;2022-11-15T14:27:43;97447.00;;;10.79;98.21
27202;BME280;14717;46.924;15.474;2022-11-15T14:30:16;97452.34;;;10.89;97.94
27202;BME280;14717;46.924;15.474;2022-11-15T14:32:49;97449.78;;;10.79;98.33
27202;BME280;14717;46.924;15.474;2022-11-15T14:35:20;97442.75;;;10.87;97.80
27202;BME280;14717;46.924;15.474;2022-11-15T14:37:46;97445.50;;;10.87;97.35
27202;BME280;14717;46.924;15.474;2022-11-15T14:40:18;97441.28;;;10.89;97.35
27202;BME280;14717;46.924;15.474;2022-11-15T14:42:45;97449.47;;;10.94;97.12
27202;BME280;14717;46.924;15.474;2022-11-15T14:45:20;97432.28;;;10.84;96.35
27202;BME280;14717;46.924;15.474;2022-11-15T14:47:46;97430.22;;;10.76;97.94
27202;BME280;14717;46.924;15.474;2022-11-15T14:50:14;97426.16;;;10.73;98.29
27202;BME280;14717;46.924;15.474;2022-11-15T14:52:39;97423.28;;;10.78;97.70
27202;BME280;14717;46.924;15.474;2022-11-15T14:55:15;97424.50;;;10.72;98.59
27202;BME280;14717;46.924;15.474;2022-11-15T14:57:42;97432.97;;;10.76;98.28
27202;BME280;14717;46.924;15.474;2022-11-15T15:00:07;97430.63;;;10.69;98.32
27202;BME280;14717;46.924;15.474;2022-11-15T15:02:36;97421.22;;;10.70;98.08
27202;BME280;14717;46.924;15.474;2022-11-15T15:05:31;97418.72;;;10.56;99.50
27202;BME280;14717;46.924;15.474;2022-11-15T15:07:55;97413.56;;;10.36;100.00
27202;BME280;14717;46.924;15.474;2022-11-15T15:10:21;97416.50;;;10.26;100.00